createdAt,value
2017-09-06T00:00:42.273Z,77.70
2017-09-06T00:03:10.545Z,78.10
2017-09-06T00:05:39.559Z,78.10
2017-09-06T00:08:07.823Z,78.20
2017-09-06T00:10:36.064Z,78.20
2017-09-06T00:13:04.346Z,78.50
2017-09-06T00:15:32.594Z,78.80
2017-09-06T00:18:00.866Z,78.70
2017-09-06T00:20:29.109Z,78.70
2017-09-06T00:22:57.363Z,78.80
2017-09-06T00:25:25.610Z,78.70
2017-09-06T00:27:53.861Z,79.20
2017-09-06T00:30:22.122Z,79.30
2017-09-06T00:32:50.384Z,79.40
2017-09-06T00:35:19.470Z,79.40
2017-09-06T00:37:47.726Z,79.70
2017-09-06T00:40:16.100Z,79.70
2017-09-06T00:42:44.386Z,79.80
2017-09-06T00:45:12.640Z,79.60
2017-09-06T00:47:40.882Z,79.90
2017-09-06T00:50:09.142Z,80.00
2017-09-06T00:52:37.421Z,79.90
2017-09-06T00:55:05.682Z,80.00
2017-09-06T00:57:33.948Z,79.90
2017-09-06T01:00:02.971Z,80.30
2017-09-06T01:02:31.233Z,80.30
2017-09-06T01:04:59.492Z,80.30
2017-09-06T01:07:27.746Z,80.30
2017-09-06T01:09:56.003Z,80.50
2017-09-06T01:12:24.258Z,80.30
2017-09-06T01:14:52.521Z,80.60
2017-09-06T01:17:20.771Z,80.70
2017-09-06T01:19:49.027Z,80.60
2017-09-06T01:22:17.274Z,80.80
2017-09-06T01:24:45.569Z,80.90
2017-09-06T01:27:13.827Z,81.10
2017-09-06T01:29:42.087Z,81.30
2017-09-06T01:32:10.327Z,81.50
2017-09-06T01:34:38.584Z,81.50
2017-09-06T01:37:06.835Z,81.60
2017-09-06T01:39:35.094Z,81.90
2017-09-06T01:42:03.338Z,82.10
2017-09-06T01:44:31.593Z,82.30
2017-09-06T01:46:59.848Z,82.20
2017-09-06T01:49:28.091Z,82.00
2017-09-06T01:51:56.358Z,82.00
2017-09-06T01:54:24.602Z,81.80
2017-09-06T01:56:52.890Z,81.90
2017-09-06T01:59:21.138Z,81.50
2017-09-06T02:01:49.399Z,81.50
2017-09-06T02:04:17.630Z,81.40
2017-09-06T02:06:46.427Z,81.30
2017-09-06T02:09:14.691Z,81.30
2017-09-06T02:11:42.967Z,81.20
2017-09-06T02:14:11.975Z,81.20
2017-09-06T02:16:41.002Z,81.30
2017-09-06T02:19:09.256Z,81.20
2017-09-06T02:21:37.521Z,81.40
2017-09-06T02:24:06.534Z,81.50
2017-09-06T02:26:35.555Z,81.60
2017-09-06T02:29:04.688Z,81.50
2017-09-06T02:31:32.955Z,81.50
2017-09-06T02:34:01.194Z,81.70
2017-09-06T02:36:29.512Z,81.60
2017-09-06T02:38:57.754Z,81.80
2017-09-06T02:41:26.018Z,82.10
2017-09-06T02:43:54.267Z,82.00
2017-09-06T02:46:22.555Z,81.90
2017-09-06T02:48:50.814Z,81.80
2017-09-06T02:51:19.819Z,81.80
2017-09-06T02:53:48.092Z,81.80
2017-09-06T02:56:16.337Z,81.90
2017-09-06T02:58:45.361Z,81.90
2017-09-06T03:01:13.621Z,81.70
2017-09-06T03:03:41.903Z,81.70
2017-09-06T03:06:10.929Z,81.70
2017-09-06T03:08:39.188Z,81.70
2017-09-06T03:11:07.453Z,81.80
2017-09-06T03:13:35.764Z,81.70
2017-09-06T03:16:04.032Z,81.40
2017-09-06T03:18:32.291Z,81.40
2017-09-06T03:21:00.585Z,81.40
2017-09-06T03:23:30.383Z,81.70
2017-09-06T03:25:59.449Z,82.00
2017-09-06T03:28:27.714Z,81.90
2017-09-06T03:30:55.962Z,81.90
2017-09-06T03:33:25.004Z,81.90
2017-09-06T03:35:53.246Z,81.80
2017-09-06T03:38:21.502Z,82.00
2017-09-06T03:40:50.530Z,82.70
2017-09-06T03:43:18.804Z,81.90
2017-09-06T03:45:47.060Z,81.90
2017-09-06T03:48:15.649Z,81.80
2017-09-06T03:50:43.921Z,81.80
2017-09-06T03:53:12.172Z,81.70
2017-09-06T03:55:40.471Z,81.80
2017-09-06T03:58:08.713Z,81.90
2017-09-06T04:00:36.994Z,81.60
2017-09-06T04:03:05.237Z,81.70
2017-09-06T04:05:33.504Z,81.70
2017-09-06T04:08:01.760Z,81.70
2017-09-06T04:10:30.018Z,81.30
2017-09-06T04:12:58.267Z,81.70
2017-09-06T04:15:26.534Z,81.70
2017-09-06T04:17:54.795Z,81.60
2017-09-06T04:20:23.079Z,81.70
2017-09-06T04:22:51.322Z,81.70
2017-09-06T04:25:19.588Z,81.80
2017-09-06T04:27:47.827Z,81.60
2017-09-06T04:30:16.403Z,81.60
2017-09-06T04:32:44.636Z,81.70
2017-09-06T04:35:12.928Z,81.70
2017-09-06T04:37:41.187Z,81.80
2017-09-06T04:40:09.458Z,82.00
2017-09-06T04:42:37.707Z,82.20
2017-09-06T04:45:06.056Z,82.30
2017-09-06T04:47:34.298Z,82.40
2017-09-06T04:50:03.347Z,82.50
2017-09-06T04:52:31.623Z,82.50
2017-09-06T04:54:59.867Z,82.50
2017-09-06T04:57:28.124Z,82.40
2017-09-06T04:59:56.375Z,82.70
2017-09-06T05:02:25.476Z,82.90
2017-09-06T05:04:54.366Z,82.70
2017-09-06T05:07:22.638Z,82.70
2017-09-06T05:09:50.887Z,82.50
2017-09-06T05:12:19.213Z,82.60
2017-09-06T05:14:47.442Z,82.50
2017-09-06T05:17:15.695Z,82.50
2017-09-06T05:19:43.959Z,82.50
2017-09-06T05:22:12.215Z,82.50
2017-09-06T05:24:40.462Z,82.60
2017-09-06T05:27:08.749Z,82.70
2017-09-06T05:29:37.750Z,82.70
2017-09-06T05:32:06.004Z,82.70
2017-09-06T05:34:34.328Z,82.80
2017-09-06T05:37:02.648Z,82.90
2017-09-06T05:39:31.010Z,83.00
2017-09-06T05:41:59.262Z,83.10
2017-09-06T05:44:27.515Z,83.10
2017-09-06T05:46:56.539Z,82.90
2017-09-06T05:49:24.854Z,82.90
2017-09-06T05:51:53.169Z,83.00
2017-09-06T05:54:21.400Z,82.70
2017-09-06T05:56:49.699Z,82.90
2017-09-06T05:59:17.920Z,82.90
2017-09-06T06:01:46.943Z,83.30
2017-09-06T06:04:15.200Z,83.20
2017-09-06T06:06:44.200Z,83.10
2017-09-06T06:09:12.492Z,83.80
2017-09-06T06:11:41.512Z,82.90
2017-09-06T06:14:09.763Z,82.90
2017-09-06T06:16:37.996Z,83.00
2017-09-06T06:19:06.293Z,82.90
2017-09-06T06:21:34.531Z,82.80
2017-09-06T06:24:02.833Z,82.60
2017-09-06T06:26:31.096Z,82.70
2017-09-06T06:28:59.346Z,82.50
2017-09-06T06:31:28.381Z,82.40
2017-09-06T06:33:56.671Z,82.40
2017-09-06T06:36:24.879Z,82.40
2017-09-06T06:38:53.167Z,82.20
2017-09-06T06:41:21.412Z,81.80
2017-09-06T06:43:49.669Z,81.70
2017-09-06T06:46:17.919Z,81.20
2017-09-06T06:48:46.952Z,80.70
2017-09-06T06:51:15.248Z,80.70
2017-09-06T06:53:43.521Z,79.90
2017-09-06T06:56:11.798Z,80.30
2017-09-06T06:58:40.062Z,79.30
2017-09-06T07:01:08.307Z,78.80
2017-09-06T07:03:36.622Z,78.70
2017-09-06T07:06:05.610Z,79.20
2017-09-06T07:08:34.611Z,78.00
2017-09-06T07:11:03.637Z,77.90
2017-09-06T07:13:31.890Z,77.80
2017-09-06T07:16:00.925Z,77.50
2017-09-06T07:18:29.180Z,77.50
2017-09-06T07:20:57.439Z,77.60
2017-09-06T07:23:26.460Z,76.90
2017-09-06T07:25:54.715Z,76.80
2017-09-06T07:28:22.950Z,76.90
2017-09-06T07:30:51.260Z,77.30
2017-09-06T07:33:19.507Z,76.70
2017-09-06T07:35:47.770Z,76.60
2017-09-06T07:38:16.024Z,76.70
2017-09-06T07:40:44.284Z,76.80
2017-09-06T07:43:12.535Z,76.80
2017-09-06T07:45:40.793Z,78.10
2017-09-06T07:48:09.063Z,76.40
2017-09-06T07:50:37.320Z,76.50
2017-09-06T07:53:05.570Z,76.10
2017-09-06T07:55:33.830Z,76.00
2017-09-06T07:58:02.066Z,75.00
2017-09-06T08:00:30.330Z,74.10
2017-09-06T08:02:58.576Z,73.80
2017-09-06T08:05:26.862Z,73.90
2017-09-06T08:08:00.811Z,73.90
2017-09-06T08:10:29.052Z,73.90
2017-09-06T08:12:57.307Z,73.60
2017-09-06T08:15:25.559Z,73.00
2017-09-06T08:17:54.580Z,71.90
2017-09-06T08:20:22.827Z,71.90
2017-09-06T08:22:51.095Z,70.70
2017-09-06T08:25:19.708Z,69.70
2017-09-06T08:27:48.730Z,68.20
2017-09-06T08:30:17.031Z,68.20
2017-09-06T08:32:45.287Z,67.10
2017-09-06T08:35:13.535Z,67.50
2017-09-06T08:37:41.784Z,67.70
2017-09-06T08:40:10.028Z,65.40
2017-09-06T08:42:38.298Z,65.60
2017-09-06T08:45:06.546Z,65.00
2017-09-06T08:47:34.827Z,64.20
2017-09-06T08:50:03.071Z,63.10
2017-09-06T08:52:31.332Z,62.20
2017-09-06T08:54:59.566Z,62.70
2017-09-06T08:57:27.827Z,61.40
2017-09-06T08:59:56.070Z,60.80
2017-09-06T09:02:24.341Z,59.00
2017-09-06T09:04:52.608Z,57.60
2017-09-06T09:07:20.864Z,55.60
2017-09-06T09:09:49.128Z,54.10
2017-09-06T09:12:17.379Z,53.70
2017-09-06T09:14:45.644Z,52.70
2017-09-06T09:17:13.890Z,52.50
2017-09-06T09:19:42.154Z,52.80
2017-09-06T09:22:11.168Z,51.50
2017-09-06T09:24:39.420Z,51.50
2017-09-06T09:27:07.687Z,51.00
2017-09-06T09:29:35.932Z,51.00
2017-09-06T09:32:04.954Z,52.10
2017-09-06T09:34:34.034Z,53.30
2017-09-06T09:37:02.251Z,53.20
2017-09-06T09:39:30.512Z,52.40
2017-09-06T09:41:58.782Z,53.00
2017-09-06T09:44:27.038Z,52.20
2017-09-06T09:46:55.289Z,52.70
2017-09-06T09:49:24.367Z,53.20
2017-09-06T09:51:53.669Z,54.20
2017-09-06T09:54:22.615Z,52.30
2017-09-06T09:56:51.227Z,50.90
2017-09-06T09:59:19.790Z,51.30
2017-09-06T10:01:48.102Z,50.90
2017-09-06T10:04:16.437Z,51.00
2017-09-06T10:06:44.682Z,50.30
2017-09-06T10:09:12.945Z,49.90
2017-09-06T10:11:41.193Z,48.70
2017-09-06T10:14:09.465Z,48.70
2017-09-06T10:16:37.706Z,48.70
2017-09-06T10:19:05.967Z,48.30
2017-09-06T10:21:34.222Z,48.80
2017-09-06T10:24:02.470Z,49.90
2017-09-06T10:26:30.923Z,50.80
2017-09-06T10:28:59.158Z,52.60
2017-09-06T10:31:27.503Z,53.80
2017-09-06T10:33:55.744Z,56.40
2017-09-06T10:36:24.003Z,59.10
2017-09-06T10:38:52.238Z,63.20
2017-09-06T10:41:20.508Z,67.00
2017-09-06T10:43:48.748Z,68.00
2017-09-06T10:46:17.002Z,69.20
2017-09-06T10:48:45.239Z,70.90
2017-09-06T10:51:13.505Z,71.30
2017-09-06T10:53:41.827Z,71.10
2017-09-06T10:56:10.100Z,71.10
2017-09-06T10:58:38.349Z,68.10
2017-09-06T11:01:06.616Z,66.60
2017-09-06T11:03:34.863Z,64.20
2017-09-06T11:06:03.155Z,62.50
2017-09-06T11:08:31.410Z,61.10
2017-09-06T11:10:59.658Z,59.50
2017-09-06T11:13:28.668Z,58.60
2017-09-06T11:15:56.944Z,58.50
2017-09-06T11:18:25.190Z,58.40
2017-09-06T11:20:53.421Z,58.30
2017-09-06T11:23:21.678Z,57.90
2017-09-06T11:25:49.985Z,57.70
2017-09-06T11:28:18.256Z,57.10
2017-09-06T11:30:46.499Z,57.60
2017-09-06T11:33:14.800Z,56.60
2017-09-06T11:35:43.816Z,53.60
2017-09-06T11:38:12.113Z,53.50
2017-09-06T11:40:40.362Z,52.30
2017-09-06T11:43:08.637Z,50.10
2017-09-06T11:45:37.647Z,48.50
2017-09-06T11:48:06.676Z,47.60
2017-09-06T11:50:34.950Z,47.60
2017-09-06T11:53:03.213Z,47.60
2017-09-06T11:55:31.462Z,47.00
2017-09-06T11:57:59.748Z,46.40
2017-09-06T12:00:30.237Z,45.20
2017-09-06T12:02:59.107Z,44.00
2017-09-06T12:05:27.362Z,43.20
2017-09-06T12:07:55.623Z,42.30
2017-09-06T12:10:23.873Z,41.80
2017-09-06T12:12:52.135Z,41.90
2017-09-06T12:15:20.382Z,41.40
2017-09-06T12:17:48.647Z,41.80
2017-09-06T12:20:16.888Z,41.30
2017-09-06T12:22:45.156Z,41.00
2017-09-06T12:25:13.404Z,40.50
2017-09-06T12:27:41.639Z,40.50
2017-09-06T12:30:09.911Z,40.00
2017-09-06T12:32:38.162Z,40.10
2017-09-06T12:35:07.205Z,39.60
2017-09-06T12:37:35.466Z,39.60
2017-09-06T12:40:03.726Z,39.40
2017-09-06T12:42:31.996Z,39.70
2017-09-06T12:45:00.276Z,39.80
2017-09-06T12:47:28.548Z,39.60
2017-09-06T12:49:56.814Z,39.30
2017-09-06T12:52:25.059Z,39.40
2017-09-06T12:54:53.314Z,37.80
2017-09-06T12:57:21.607Z,37.90
2017-09-06T12:59:49.912Z,37.80
2017-09-06T13:02:18.139Z,37.70
2017-09-06T13:04:46.408Z,37.80
2017-09-06T13:07:14.650Z,37.80
2017-09-06T13:09:42.913Z,36.90
2017-09-06T13:12:11.153Z,36.70
2017-09-06T13:14:39.435Z,37.00
2017-09-06T13:17:07.709Z,37.00
2017-09-06T13:19:35.982Z,36.90
2017-09-06T13:22:04.224Z,36.60
2017-09-06T13:24:32.483Z,37.30
2017-09-06T13:27:00.729Z,37.30
2017-09-06T13:29:28.999Z,36.70
2017-09-06T13:31:57.250Z,37.70
2017-09-06T13:34:25.558Z,38.20
2017-09-06T13:36:53.840Z,38.30
2017-09-06T13:39:22.094Z,38.20
2017-09-06T13:41:50.355Z,38.50
2017-09-06T13:44:18.604Z,39.30
2017-09-06T13:46:46.867Z,39.40
2017-09-06T13:49:15.106Z,39.10
2017-09-06T13:51:43.398Z,39.30
2017-09-06T13:54:11.646Z,39.50
2017-09-06T13:56:39.901Z,39.80
2017-09-06T13:59:08.149Z,40.10
2017-09-06T14:01:36.406Z,42.40
2017-09-06T14:04:04.650Z,43.20
2017-09-06T14:06:32.915Z,42.60
2017-09-06T14:09:01.159Z,43.10
2017-09-06T14:11:29.431Z,42.70
2017-09-06T14:13:57.664Z,42.50
2017-09-06T14:16:25.915Z,41.30
2017-09-06T14:18:54.171Z,40.20
2017-09-06T14:21:22.425Z,42.10
2017-09-06T14:23:50.683Z,40.10
2017-09-06T14:26:18.956Z,40.50
2017-09-06T14:28:47.216Z,40.60
2017-09-06T14:31:15.479Z,40.30
2017-09-06T14:33:43.732Z,40.70
2017-09-06T14:36:12.748Z,39.80
2017-09-06T14:38:40.991Z,39.70
2017-09-06T14:41:09.242Z,39.20
2017-09-06T14:43:37.504Z,38.60
2017-09-06T14:46:05.801Z,38.90
2017-09-06T14:48:34.052Z,37.60
2017-09-06T14:51:02.299Z,37.70
2017-09-06T14:53:31.744Z,39.60
2017-09-06T14:55:59.990Z,39.60
2017-09-06T14:58:28.242Z,38.30
2017-09-06T15:00:56.482Z,37.80
2017-09-06T15:03:24.739Z,38.00
2017-09-06T15:05:53.759Z,38.60
2017-09-06T15:08:22.022Z,38.60
2017-09-06T15:10:51.044Z,38.60
2017-09-06T15:13:19.362Z,38.60
2017-09-06T15:15:47.634Z,39.40
2017-09-06T15:18:15.897Z,40.30
2017-09-06T15:20:44.147Z,39.60
2017-09-06T15:23:12.415Z,39.50
2017-09-06T15:25:40.658Z,39.70
2017-09-06T15:28:08.922Z,39.20
2017-09-06T15:30:37.191Z,39.00
2017-09-06T15:33:05.464Z,39.60
2017-09-06T15:35:33.710Z,39.90
2017-09-06T15:38:01.956Z,39.20
2017-09-06T15:40:30.208Z,39.20
2017-09-06T15:42:58.488Z,39.80
2017-09-06T15:45:26.751Z,39.60
2017-09-06T15:47:54.993Z,40.00
2017-09-06T15:50:23.299Z,40.60
2017-09-06T15:52:51.556Z,40.90
2017-09-06T15:55:19.817Z,41.30
2017-09-06T15:57:48.077Z,41.00
2017-09-06T16:00:16.339Z,40.70
2017-09-06T16:02:44.646Z,40.90
2017-09-06T16:05:12.923Z,41.40
2017-09-06T16:07:41.184Z,41.90
2017-09-06T16:10:09.442Z,42.20
2017-09-06T16:12:38.103Z,42.20
2017-09-06T16:15:06.369Z,42.10
2017-09-06T16:17:34.618Z,42.60
2017-09-06T16:20:02.886Z,42.40
2017-09-06T16:22:31.130Z,42.60
2017-09-06T16:24:59.422Z,42.90
2017-09-06T16:27:27.674Z,42.90
2017-09-06T16:29:55.960Z,43.90
2017-09-06T16:32:24.216Z,44.10
2017-09-06T16:34:52.464Z,44.00
2017-09-06T16:37:20.707Z,43.90
2017-09-06T16:39:49.057Z,43.50
2017-09-06T16:42:17.366Z,44.40
2017-09-06T16:44:45.618Z,44.00
2017-09-06T16:47:13.883Z,44.30
2017-09-06T16:49:42.161Z,44.20
2017-09-06T16:52:10.395Z,44.40
2017-09-06T16:54:38.645Z,44.40
2017-09-06T16:57:06.916Z,45.00
2017-09-06T16:59:35.182Z,45.10
2017-09-06T17:02:03.476Z,44.80
2017-09-06T17:04:31.735Z,45.20
2017-09-06T17:07:00.002Z,45.30
2017-09-06T17:09:40.871Z,45.30
2017-09-06T17:12:09.150Z,45.30
2017-09-06T17:14:37.391Z,45.80
2017-09-06T17:17:05.677Z,45.40
2017-09-06T17:19:33.941Z,45.80
2017-09-06T17:22:02.214Z,46.20
2017-09-06T17:24:30.476Z,46.30
2017-09-06T17:26:58.751Z,46.40
2017-09-06T17:29:26.995Z,46.70
2017-09-06T17:31:55.254Z,46.70
2017-09-06T17:34:23.521Z,46.60
2017-09-06T17:36:51.798Z,47.00
2017-09-06T17:39:20.038Z,47.60
2017-09-06T17:41:48.427Z,47.10
2017-09-06T17:44:16.647Z,47.30
2017-09-06T17:46:44.914Z,47.40
2017-09-06T17:49:13.170Z,47.10
2017-09-06T17:51:41.428Z,47.20
2017-09-06T17:54:09.677Z,47.10
2017-09-06T17:56:38.010Z,47.40
2017-09-06T17:59:06.752Z,47.70
2017-09-06T18:01:35.041Z,48.30
2017-09-06T18:04:03.542Z,47.80
2017-09-06T18:06:31.782Z,47.80
2017-09-06T18:09:00.069Z,48.10
2017-09-06T18:11:28.315Z,48.40
2017-09-06T18:13:56.613Z,48.60
2017-09-06T18:16:24.854Z,48.70
2017-09-06T18:18:53.472Z,48.90
2017-09-06T18:21:21.715Z,48.80
2017-09-06T18:23:49.988Z,48.80
2017-09-06T18:26:18.265Z,49.20
2017-09-06T18:28:46.555Z,48.60
2017-09-06T18:31:14.818Z,48.90
2017-09-06T18:33:43.121Z,48.60
2017-09-06T18:36:11.391Z,49.20
2017-09-06T18:38:39.674Z,49.00
2017-09-06T18:41:07.944Z,49.10
2017-09-06T18:43:36.219Z,49.10
2017-09-06T18:46:04.516Z,49.30
2017-09-06T18:48:32.815Z,49.20
2017-09-06T18:51:01.135Z,49.20
2017-09-06T18:53:30.165Z,48.90
2017-09-06T18:55:58.462Z,48.80
2017-09-06T18:58:27.045Z,48.40
2017-09-06T19:00:55.280Z,48.70
2017-09-06T19:03:23.543Z,48.70
2017-09-06T19:05:51.878Z,48.20
2017-09-06T19:08:20.139Z,48.20
2017-09-06T19:10:48.430Z,48.30
2017-09-06T19:13:16.699Z,48.00
2017-09-06T19:15:44.977Z,48.30
2017-09-06T19:18:13.223Z,48.40
2017-09-06T19:20:41.483Z,48.30
2017-09-06T19:23:09.721Z,48.60
2017-09-06T19:25:38.004Z,48.70
2017-09-06T19:28:06.238Z,48.80
2017-09-06T19:30:34.582Z,48.90
2017-09-06T19:33:02.840Z,49.00
2017-09-06T19:35:31.108Z,49.00
2017-09-06T19:37:59.355Z,48.80
2017-09-06T19:40:27.619Z,49.00
2017-09-06T19:42:55.885Z,48.90
2017-09-06T19:45:24.174Z,49.00
2017-09-06T19:47:52.397Z,49.20
2017-09-06T19:50:20.663Z,49.20
2017-09-06T19:52:48.912Z,49.30
2017-09-06T19:55:17.195Z,49.20
2017-09-06T19:57:45.438Z,49.40
2017-09-06T20:00:13.734Z,49.40
2017-09-06T20:02:41.986Z,49.70
2017-09-06T20:05:10.226Z,49.50
2017-09-06T20:07:38.515Z,50.20
2017-09-06T20:10:06.773Z,49.90
2017-09-06T20:12:35.044Z,49.80
2017-09-06T20:15:03.331Z,50.00
2017-09-06T20:17:31.588Z,50.30
2017-09-06T20:19:59.837Z,50.10
2017-09-06T20:22:28.133Z,50.40
2017-09-06T20:24:57.138Z,50.70
2017-09-06T20:27:25.439Z,50.70
2017-09-06T20:29:53.698Z,50.60
2017-09-06T20:32:22.730Z,51.10
2017-09-06T20:34:50.986Z,50.90
2017-09-06T20:37:19.324Z,51.30
2017-09-06T20:39:47.564Z,51.40
2017-09-06T20:42:15.823Z,51.30
2017-09-06T20:44:44.069Z,51.50
2017-09-06T20:47:12.337Z,51.50
2017-09-06T20:49:40.595Z,51.60
2017-09-06T20:52:08.865Z,51.60
2017-09-06T20:54:37.113Z,51.80
2017-09-06T20:57:05.398Z,51.80
2017-09-06T20:59:34.410Z,51.80
2017-09-06T21:02:02.671Z,51.80
2017-09-06T21:04:30.923Z,51.90
2017-09-06T21:06:59.175Z,51.90
2017-09-06T21:09:27.473Z,51.90
2017-09-06T21:11:55.727Z,52.00
2017-09-06T21:14:24.678Z,52.00
2017-09-06T21:16:52.941Z,52.30
2017-09-06T21:19:21.221Z,52.90
2017-09-06T21:21:49.460Z,53.00
2017-09-06T21:24:17.719Z,52.60
2017-09-06T21:26:45.980Z,52.60
2017-09-06T21:29:14.270Z,52.80
2017-09-06T21:31:43.290Z,52.80
2017-09-06T21:34:11.584Z,52.70
2017-09-06T21:36:39.822Z,52.80
2017-09-06T21:39:08.094Z,52.90
2017-09-06T21:41:36.438Z,53.20
2017-09-06T21:44:04.716Z,53.70
2017-09-06T21:46:32.965Z,53.30
2017-09-06T21:49:01.981Z,53.70
2017-09-06T21:51:30.231Z,53.60
2017-09-06T21:53:58.497Z,53.90
2017-09-06T21:56:26.790Z,54.10
2017-09-06T21:58:55.864Z,54.70
2017-09-06T22:01:24.114Z,54.70
2017-09-06T22:03:52.389Z,54.80
2017-09-06T22:06:20.980Z,55.00
2017-09-06T22:08:49.264Z,55.00
2017-09-06T22:11:17.589Z,55.00
2017-09-06T22:13:45.836Z,55.10
2017-09-06T22:16:14.116Z,55.30
2017-09-06T22:18:42.401Z,55.40
2017-09-06T22:21:11.539Z,55.50
2017-09-06T22:23:39.782Z,55.60
2017-09-06T22:26:08.056Z,56.20
2017-09-06T22:28:36.307Z,55.60
2017-09-06T22:31:04.567Z,55.80
2017-09-06T22:33:33.603Z,56.40
2017-09-06T22:36:01.892Z,55.80
2017-09-06T22:38:30.769Z,55.90
2017-09-06T22:40:59.030Z,56.10
2017-09-06T22:43:27.339Z,56.30
2017-09-06T22:45:55.608Z,56.60
2017-09-06T22:48:23.877Z,56.60
2017-09-06T22:50:52.148Z,56.60
2017-09-06T22:53:20.404Z,56.80
2017-09-06T22:55:48.670Z,56.70
2017-09-06T22:58:16.915Z,56.80
2017-09-06T23:00:45.187Z,56.90
2017-09-06T23:03:13.447Z,56.90
2017-09-06T23:05:41.707Z,56.90
2017-09-06T23:08:09.967Z,57.00
2017-09-06T23:10:38.242Z,57.00
2017-09-06T23:13:06.493Z,57.30
2017-09-06T23:15:35.525Z,57.70
2017-09-06T23:18:03.782Z,57.70
2017-09-06T23:20:32.038Z,57.90
2017-09-06T23:23:00.325Z,58.10
2017-09-06T23:25:28.576Z,58.20
2017-09-06T23:27:56.840Z,58.40
2017-09-06T23:30:25.099Z,58.50
2017-09-06T23:32:53.354Z,58.90
2017-09-06T23:35:21.654Z,59.20
2017-09-06T23:37:49.911Z,59.40
2017-09-06T23:40:18.927Z,59.50
2017-09-06T23:42:47.198Z,59.50
2017-09-06T23:45:15.542Z,59.60
2017-09-06T23:47:43.778Z,60.10
2017-09-06T23:50:12.018Z,60.70
2017-09-06T23:52:41.052Z,61.40
2017-09-06T23:55:09.296Z,61.40
2017-09-06T23:57:37.556Z,61.70
